Time;durP1;ratioP1;P1;durP2;ratioP2;P2;SDS_P1;SDS_P2;PMS_P1;PMS_P2;Temp;Humidity;BMP_temperature;BMP_pressure;BME280_temperature;BME280_humidity;BME280_pressure;Samples;Min_cycle;Max_cycle;Signal;HPM_P1;HPM_P2
2022/06/22 00:01:20;;;;;;;8.70;4.80;;;;;;;25.21;53.98;96444.69;5088092;28;20198;-71
2022/06/22 00:03:51;;;;;;;9.07;4.90;;;;;;;25.14;54.12;96453.53;5089370;28;20323;-71
2022/06/22 00:06:54;;;;;;;7.70;4.90;;;;;;;25.01;54.71;96454.91;5089522;28;20199;-71
2022/06/22 00:09:29;;;;;;;6.50;5.07;;;;;;;25.00;54.83;96441.81;5084286;28;20192;-72
2022/06/22 00:11:58;;;;;;;6.80;4.57;;;;;;;24.34;54.57;96348.75;5071853;28;20198;-72
2022/06/22 00:14:31;;;;;;;7.67;5.10;;;;;;;24.86;54.77;96453.97;5088676;28;20195;-72
2022/06/22 00:16:58;;;;;;;8.03;5.10;;;;;;;24.86;54.84;96453.16;5088846;28;20260;-72
2022/06/22 00:19:34;;;;;;;6.97;4.77;;;;;;;24.74;55.64;96439.47;5089627;28;20206;-72
2022/06/22 00:22:01;;;;;;;6.47;5.27;;;;;;;24.83;55.00;96450.88;5087823;28;20214;-72
2022/06/22 00:24:34;;;;;;;11.23;5.10;;;;;;;24.87;55.29;96450.31;5089332;28;20289;-71
2022/06/22 00:27:28;;;;;;;7.07;4.57;;;;;;;24.99;54.47;96461.38;5087813;28;20244;-72
2022/06/22 00:30:29;;;;;;;5.67;4.70;;;;;;;25.10;54.73;96455.69;5088581;28;20204;-71
2022/06/22 00:33:11;;;;;;;8.53;4.90;;;;;;;25.15;54.10;96461.28;5089331;28;20194;-71
2022/06/22 00:35:49;;;;;;;7.67;4.77;;;;;;;25.07;54.66;96457.84;5087448;28;20659;-72
2022/06/22 00:38:42;;;;;;;6.43;4.27;;;;;;;24.98;54.84;96457.06;5088734;28;20573;-72
2022/06/22 00:41:33;;;;;;;6.83;4.63;;;;;;;25.07;54.31;96453.38;5084715;28;20564;-72
2022/06/22 00:44:07;;;;;;;9.00;4.83;;;;;;;25.19;54.20;96457.28;5087210;28;20685;-72
2022/06/22 00:46:44;;;;;;;8.87;4.87;;;;;;;25.26;54.29;96447.66;5088769;28;20634;-71
2022/06/22 00:49:21;;;;;;;7.57;4.73;;;;;;;25.24;53.94;96452.31;5088295;28;20732;-72
2022/06/22 00:51:49;;;;;;;9.57;5.33;;;;;;;25.18;53.95;96460.97;5069507;28;20255;-72
2022/06/22 00:54:24;;;;;;;7.57;4.83;;;;;;;25.18;54.25;96463.59;5088775;28;20567;-72
2022/06/22 00:57:11;;;;;;;6.27;4.57;;;;;;;25.13;54.60;96463.28;5087513;28;20575;-72
2022/06/22 00:59:37;;;;;;;8.77;4.73;;;;;;;25.20;54.31;96469.56;5088774;28;20199;-72
2022/06/22 01:02:19;;;;;;;7.53;4.90;;;;;;;25.18;53.59;96474.22;5088105;28;20254;-72
2022/06/22 01:04:52;;;;;;;5.73;4.60;;;;;;;25.12;53.96;96461.66;5087326;28;20249;-72
2022/06/22 01:07:36;;;;;;;7.87;5.07;;;;;;;25.03;53.77;96462.69;5088636;28;20612;-72
2022/06/22 01:10:09;;;;;;;6.13;4.40;;;;;;;25.03;53.82;96465.34;5087181;28;20222;-72
2022/06/22 01:12:39;;;;;;;7.20;4.37;;;;;;;24.98;53.87;96465.84;5088354;28;20261;-72
2022/06/22 01:15:32;;;;;;;11.03;4.93;;;;;;;25.03;53.42;96475.94;5087929;28;20198;-72
2022/06/22 01:18:13;;;;;;;6.83;4.67;;;;;;;25.03;53.32;96481.22;5082401;28;20194;-72
2022/06/22 01:20:45;;;;;;;8.60;4.53;;;;;;;25.01;53.06;96483.22;5088405;28;20183;-72
2022/06/22 01:23:36;;;;;;;10.43;4.57;;;;;;;24.98;53.53;96486.22;5086618;28;20239;-72
2022/06/22 01:26:35;;;;;;;7.00;4.17;;;;;;;24.94;53.16;96484.91;5087336;28;20204;-72
2022/06/22 01:29:12;;;;;;;9.03;4.10;;;;;;;24.93;52.73;96484.09;5054341;28;20198;-72
2022/06/22 01:31:48;;;;;;;5.83;4.10;;;;;;;25.00;52.55;96478.91;5086444;28;20215;-72
2022/06/22 01:34:16;;;;;;;8.30;4.47;;;;;;;25.10;52.02;96478.72;5087997;28;20598;-72
2022/06/22 01:36:44;;;;;;;6.23;4.13;;;;;;;25.11;52.01;96481.19;5087574;28;20206;-72
2022/06/22 01:39:12;;;;;;;6.83;3.87;;;;;;;25.09;51.18;96483.19;5086925;28;20194;-72
2022/06/22 01:41:53;;;;;;;7.20;4.20;;;;;;;25.25;51.14;96477.81;5087893;28;20206;-72
2022/06/22 01:45:01;;;;;;;6.83;4.43;;;;;;;25.33;50.19;96477.75;5086430;28;20235;-72
2022/06/22 01:47:36;;;;;;;10.33;4.80;;;;;;;25.40;50.10;96469.94;5087512;28;20981;-72
2022/06/22 01:50:09;;;;;;;6.37;4.10;;;;;;;25.42;50.54;96474.09;5087796;28;20738;-72
2022/06/22 01:53:07;;;;;;;7.53;4.20;;;;;;;25.39;50.28;96468.28;5086366;28;20199;-72
2022/06/22 01:55:48;;;;;;;5.57;4.17;;;;;;;25.39;50.00;96473.59;5087893;28;20792;-71
2022/06/22 01:58:15;;;;;;;7.10;4.50;;;;;;;25.48;50.04;96467.25;5087527;28;20226;-72
2022/06/22 02:00:44;;;;;;;8.27;4.80;;;;;;;25.50;50.37;96459.94;5086730;28;20230;-72
2022/06/22 02:03:22;;;;;;;7.40;5.00;;;;;;;25.50;50.33;96482.00;5087749;28;20211;-72
2022/06/22 02:06:01;;;;;;;7.97;4.67;;;;;;;25.48;49.94;96476.03;5087488;28;20187;-72
2022/06/22 02:08:36;;;;;;;5.40;4.57;;;;;;;25.45;50.03;96468.41;5092214;28;20194;-72
2022/06/22 02:11:32;;;;;;;11.90;5.50;;;;;;;25.42;50.54;96463.50;5091455;28;20251;-72
2022/06/22 02:14:27;;;;;;;11.07;5.27;;;;;;;25.32;50.76;96472.63;5088078;28;20207;-72
2022/06/22 02:16:59;;;;;;;5.80;4.37;;;;;;;25.27;50.49;96462.53;5088807;28;20211;-71
2022/06/22 02:19:30;;;;;;;9.10;5.17;;;;;;;25.23;51.37;96463.06;5073023;28;20756;-72
2022/06/22 02:21:58;;;;;;;8.87;5.27;;;;;;;25.27;50.99;96478.44;5091341;28;20210;-72
2022/06/22 02:24:35;;;;;;;10.27;5.90;;;;;;;25.26;50.65;96458.25;5091546;28;20238;-72
2022/06/22 02:27:12;;;;;;;5.27;4.73;;;;;;;25.28;50.63;96468.69;5090514;28;20187;-72
2022/06/22 02:29:59;;;;;;;8.20;5.40;;;;;;;25.28;51.02;96466.03;5091647;28;20199;-72
2022/06/22 02:32:35;;;;;;;7.50;5.43;;;;;;;25.24;51.09;96454.13;5090637;28;20204;-71
2022/06/22 02:35:05;;;;;;;6.10;5.23;;;;;;;25.24;50.79;96454.97;5090628;28;20191;-72
2022/06/22 02:37:37;;;;;;;7.63;5.53;;;;;;;25.26;50.60;96455.59;5091435;28;20198;-71
2022/06/22 02:40:09;;;;;;;8.97;5.37;;;;;;;25.29;50.69;96452.59;5089975;28;20256;-72
2022/06/22 02:45:22;;;;;;;8.97;6.03;;;;;;;25.20;51.04;96464.25;5072154;28;20235;-71
2022/06/22 02:48:11;;;;;;;9.63;6.07;;;;;;;25.20;50.96;96461.59;5090848;28;20202;-71
2022/06/22 02:50:43;;;;;;;8.13;5.70;;;;;;;25.23;51.24;96471.84;5091461;28;20200;-72
2022/06/22 02:53:34;;;;;;;8.97;5.30;;;;;;;25.12;51.33;96435.16;5071435;28;20211;-71
2022/06/22 02:56:03;;;;;;;10.17;5.47;;;;;;;25.29;51.08;96470.31;5091009;28;20233;-72
2022/06/22 02:58:34;;;;;;;7.63;5.60;;;;;;;25.23;51.07;96469.19;5090516;28;20238;-72
2022/06/22 03:01:06;;;;;;;7.93;5.67;;;;;;;25.25;51.64;96472.50;5089702;28;20743;-72
2022/06/22 03:03:35;;;;;;;14.73;6.03;;;;;;;25.30;51.29;96464.88;5090846;28;20234;-72
2022/06/22 03:06:03;;;;;;;9.07;5.77;;;;;;;25.39;51.50;96470.94;5089312;28;20627;-72
2022/06/22 03:08:30;;;;;;;8.80;5.80;;;;;;;25.34;51.65;96481.22;5090691;28;20203;-72
2022/06/22 03:11:08;;;;;;;10.27;5.80;;;;;;;25.49;51.48;96482.97;5089430;28;20195;-71
2022/06/22 03:13:41;;;;;;;7.90;5.90;;;;;;;25.43;51.50;96465.13;5090575;28;20194;-72
2022/06/22 03:16:35;;;;;;;8.47;5.87;;;;;;;25.45;51.18;96475.56;5090723;28;20206;-72
2022/06/22 03:19:08;;;;;;;8.27;6.70;;;;;;;25.49;51.54;96475.03;5089349;28;20739;-71
2022/06/22 03:21:36;;;;;;;7.40;5.63;;;;;;;25.43;51.74;96465.13;5090569;28;20677;-71
2022/06/22 03:24:06;;;;;;;8.77;6.57;;;;;;;25.51;51.43;96469.56;5089042;28;20288;-71
2022/06/22 03:26:41;;;;;;;8.17;5.93;;;;;;;25.47;51.96;96466.41;5089965;28;20217;-72
2022/06/22 03:29:17;;;;;;;8.43;6.07;;;;;;;25.47;52.02;96477.03;5090253;28;20207;-71
2022/06/22 03:31:50;;;;;;;8.53;5.87;;;;;;;25.50;51.75;96475.84;5089147;28;20603;-71
2022/06/22 03:34:22;;;;;;;10.93;6.37;;;;;;;25.58;52.19;96468.69;5090066;28;20638;-71
2022/06/22 03:37:11;;;;;;;12.53;6.33;;;;;;;25.70;51.33;96469.91;5088647;28;20255;-71
2022/06/22 03:39:42;;;;;;;7.77;5.70;;;;;;;25.78;51.15;96474.34;5089667;28;20229;-72
2022/06/22 03:42:30;;;;;;;8.10;7.23;;;;;;;25.84;51.00;96458.53;5090384;28;20215;-72
2022/06/22 03:45:04;;;;;;;9.90;6.13;;;;;;;25.99;51.21;96471.03;5088562;28;20235;-71
2022/06/22 03:47:57;;;;;;;10.30;6.27;;;;;;;26.14;50.98;96479.88;5089909;28;20200;-72
2022/06/22 03:50:43;;;;;;;6.73;6.03;;;;;;;26.38;50.22;96484.94;5089217;28;20214;-72
2022/06/22 03:53:23;;;;;;;6.90;6.23;;;;;;;26.53;49.87;96480.47;5088247;28;20195;-72
2022/06/22 03:55:55;;;;;;;7.13;5.77;;;;;;;26.85;49.32;96489.97;5089936;28;20253;-71
2022/06/22 03:58:24;;;;;;;8.10;6.20;;;;;;;26.66;50.02;96490.47;5088369;28;20235;-71
2022/06/22 04:00:52;;;;;;;7.93;5.43;;;;;;;26.83;48.75;96482.16;5089430;28;20196;-71
2022/06/22 04:03:20;;;;;;;9.53;6.43;;;;;;;27.20;49.07;96490.00;5088997;28;20198;-72
2022/06/22 04:05:55;;;;;;;7.97;5.70;;;;;;;27.17;48.42;96492.22;5088600;28;20285;-71
2022/06/22 04:08:28;;;;;;;13.37;6.20;;;;;;;27.12;49.20;96489.31;5090036;28;20196;-72
2022/06/22 04:11:16;;;;;;;8.37;6.57;;;;;;;27.18;48.02;96492.00;5088337;28;20228;-71
2022/06/22 04:13:51;;;;;;;7.83;5.90;;;;;;;27.32;47.92;96496.50;5089272;28;20196;-71
2022/06/22 04:16:34;;;;;;;8.10;5.47;;;;;;;27.35;48.28;96498.81;5089635;28;20721;-70
2022/06/22 04:19:12;;;;;;;7.60;5.67;;;;;;;27.61;47.19;96492.97;5069515;28;20511;-71
2022/06/22 04:21:43;;;;;;;8.40;5.67;;;;;;;27.29;47.78;96496.03;5089205;28;20200;-71
2022/06/22 04:24:19;;;;;;;6.80;5.30;;;;;;;27.18;48.02;96492.00;5087684;28;20313;-70
2022/06/22 04:27:09;;;;;;;7.07;5.93;;;;;;;27.26;48.35;96497.25;5089056;28;20188;-71
2022/06/22 04:30:10;;;;;;;9.33;5.90;;;;;;;27.15;48.29;96505.69;5088216;28;20227;-71
2022/06/22 04:33:01;;;;;;;10.33;6.17;;;;;;;26.63;49.48;96501.47;5073302;28;20691;-71
2022/06/22 04:35:34;;;;;;;7.40;5.80;;;;;;;26.46;49.97;96506.13;5088883;28;20197;-70
2022/06/22 04:38:18;;;;;;;9.10;6.13;;;;;;;26.33;50.75;96495.28;5089026;28;20196;-71
2022/06/22 04:40:45;;;;;;;10.33;5.63;;;;;;;26.31;50.63;96492.00;5087640;28;20211;-71
2022/06/22 04:43:13;;;;;;;7.93;6.37;;;;;;;26.05;51.18;96478.28;5089058;28;20207;-71
2022/06/22 04:45:42;;;;;;;6.43;5.80;;;;;;;26.40;50.84;96506.81;5087403;28;20220;-71
2022/06/22 04:48:27;;;;;;;8.40;5.97;;;;;;;26.79;49.35;96494.16;5089007;28;20197;-72
2022/06/22 04:51:00;;;;;;;11.53;5.93;;;;;;;26.66;50.26;96490.47;5088350;28;20196;-72
2022/06/22 04:53:41;;;;;;;8.17;5.93;;;;;;;26.90;49.62;96499.03;5087326;28;20283;-72
2022/06/22 04:56:16;;;;;;;8.67;5.47;;;;;;;26.90;49.25;96492.88;5088594;28;20200;-72
2022/06/22 04:58:51;;;;;;;6.70;5.40;;;;;;;26.82;49.48;96499.13;5087118;28;20189;-72
2022/06/22 05:01:27;;;;;;;9.67;5.57;;;;;;;27.02;48.73;96497.53;5070578;28;20187;-72
2022/06/22 05:03:59;;;;;;;7.50;5.33;;;;;;;27.23;48.31;96515.41;5088607;28;20221;-72
2022/06/22 05:06:38;;;;;;;8.70;5.63;;;;;;;27.07;48.76;96520.91;5087149;28;20256;-71
2022/06/22 05:09:28;;;;;;;7.07;4.83;;;;;;;26.88;49.15;96489.56;5088474;28;20693;-72
2022/06/22 05:11:55;;;;;;;11.90;6.00;;;;;;;27.01;49.61;96514.53;5087214;28;20254;-72
2022/06/22 05:14:32;;;;;;;9.17;5.83;;;;;;;26.58;49.80;96512.66;5087805;28;20706;-72
2022/06/22 05:17:04;;;;;;;6.73;5.43;;;;;;;26.80;49.02;96519.75;5088356;28;20196;-72
2022/06/22 05:19:46;;;;;;;6.33;4.87;;;;;;;27.18;48.53;96518.59;5086408;28;20196;-72
2022/06/22 05:22:14;;;;;;;6.80;5.50;;;;;;;27.03;48.42;96515.16;5087734;28;20195;-72
2022/06/22 05:24:56;;;;;;;9.07;5.60;;;;;;;27.15;48.76;96529.63;5085901;28;20765;-72
2022/06/22 05:27:29;;;;;;;8.93;5.57;;;;;;;27.13;48.66;96536.13;5087433;28;20193;-72
2022/06/22 05:30:07;;;;;;;6.70;5.40;;;;;;;27.02;48.74;96537.41;5069426;28;20201;-73
2022/06/22 05:32:43;;;;;;;8.43;5.27;;;;;;;27.35;48.55;96536.03;5086130;28;20699;-72
2022/06/22 05:35:37;;;;;;;9.13;5.60;;;;;;;27.70;47.86;96536.25;5087910;28;20203;-73
2022/06/22 05:38:07;;;;;;;9.27;6.50;;;;;;;27.40;48.19;96543.47;5068853;28;20207;-72
2022/06/22 05:40:36;;;;;;;9.57;5.57;;;;;;;27.18;48.87;96534.56;5085873;28;20192;-71
2022/06/22 05:43:04;;;;;;;10.00;5.37;;;;;;;26.84;49.44;96534.31;5088001;28;20281;-72
2022/06/22 05:45:37;;;;;;;6.00;5.30;;;;;;;26.86;49.56;96545.59;5086067;28;20220;-71
2022/06/22 05:48:05;;;;;;;6.67;5.70;;;;;;;26.75;50.01;96538.06;5069248;28;20204;-72
2022/06/22 05:51:09;;;;;;;10.67;7.17;;;;;;;26.72;49.89;96533.13;5086176;28;20627;-72
2022/06/22 05:53:45;;;;;;;7.13;5.07;;;;;;;27.34;48.93;96546.88;5041721;28;20287;-73
2022/06/22 05:56:15;;;;;;;7.23;5.20;;;;;;;27.46;48.07;96536.56;5087351;28;20207;-71
2022/06/22 05:59:07;;;;;;;8.00;5.83;;;;;;;27.78;47.62;96552.09;5067845;28;20193;-74
2022/06/22 06:02:01;;;;;;;8.57;5.37;;;;;;;27.73;47.28;96555.31;5087477;28;20670;-72
2022/06/22 06:04:43;;;;;;;10.63;5.87;;;;;;;27.42;47.26;96543.28;5089244;28;20224;-73
2022/06/22 06:07:30;;;;;;;10.23;5.87;;;;;;;27.22;47.88;96545.69;5097103;28;20196;-73
2022/06/22 06:09:57;;;;;;;6.23;5.53;;;;;;;27.01;47.57;96535.78;5103079;28;20271;-72
2022/06/22 06:12:34;;;;;;;9.93;5.60;;;;;;;26.82;48.08;96554.94;5103759;28;20273;-72
2022/06/22 06:15:04;;;;;;;7.60;5.73;;;;;;;26.56;48.28;96549.19;5094337;28;20195;-72
2022/06/22 06:17:41;;;;;;;9.40;6.43;;;;;;;26.53;48.86;96546.88;5072210;28;20199;-72
2022/06/22 06:20:20;;;;;;;8.67;5.87;;;;;;;26.56;48.80;96543.88;5070232;28;20302;-72
2022/06/22 06:22:50;;;;;;;7.87;5.17;;;;;;;26.64;48.73;96551.78;5074762;28;20756;-71
2022/06/22 06:28:25;;;;;;;8.70;5.60;;;;;;;26.56;48.95;96544.69;5086789;28;20199;-71
2022/06/22 06:30:57;;;;;;;10.67;6.50;;;;;;;26.48;49.68;96558.03;5087689;28;20210;-71
2022/06/22 06:33:27;;;;;;;8.03;5.00;;;;;;;26.66;49.58;96563.03;5087270;28;20200;-71
2022/06/22 06:36:02;;;;;;;9.63;5.90;;;;;;;26.85;48.67;96565.22;5087587;28;20310;-72
2022/06/22 06:38:40;;;;;;;9.57;6.10;;;;;;;26.90;48.21;96557.50;5086605;28;20748;-71
2022/06/22 06:41:13;;;;;;;15.17;6.33;;;;;;;27.10;47.89;96550.63;5086704;28;20192;-72
2022/06/22 06:44:02;;;;;;;7.63;5.67;;;;;;;26.65;47.97;96557.91;5088567;28;20200;-72
2022/06/22 06:46:37;;;;;;;7.87;5.33;;;;;;;26.72;48.08;96553.53;5086598;28;20224;-74
2022/06/22 06:49:20;;;;;;;7.30;5.57;;;;;;;26.87;47.60;96549.06;5069969;28;20200;-72
2022/06/22 06:51:54;;;;;;;7.87;5.87;;;;;;;27.00;47.69;96555.38;5088417;28;20196;-72
2022/06/22 06:54:30;;;;;;;10.50;6.47;;;;;;;27.22;46.86;96541.16;5090550;28;20196;-72
2022/06/22 06:57:03;;;;;;;13.20;7.00;;;;;;;27.26;46.77;96562.91;5073717;28;20226;-73
2022/06/22 06:59:32;;;;;;;8.60;6.57;;;;;;;27.19;47.43;96551.34;5089161;28;20192;-72
2022/06/22 07:02:05;;;;;;;7.83;6.47;;;;;;;27.24;47.77;96543.66;5090494;28;20284;-72
2022/06/22 07:04:34;;;;;;;7.97;7.17;;;;;;;27.14;47.60;96545.78;5089983;28;20219;-72
2022/06/22 07:07:17;;;;;;;9.43;7.17;;;;;;;27.11;48.12;96540.81;5090153;28;20197;-72
2022/06/22 07:09:47;;;;;;;10.40;7.67;;;;;;;27.15;47.75;96534.94;5073643;28;20194;-72
2022/06/22 07:12:26;;;;;;;10.53;8.17;;;;;;;27.33;47.61;96534.53;5090126;28;20227;-72
2022/06/22 07:15:02;;;;;;;12.30;8.40;;;;;;;27.43;47.39;96511.16;5092301;28;20226;-72
2022/06/22 07:17:36;;;;;;;11.80;8.13;;;;;;;27.62;46.83;96509.75;5091555;28;20257;-73
2022/06/22 07:20:13;;;;;;;12.63;9.03;;;;;;;27.84;46.29;96519.41;5073158;28;20247;-73
2022/06/22 07:22:51;;;;;;;11.13;8.37;;;;;;;27.94;45.88;96519.91;5073342;28;20192;-71
2022/06/22 07:25:28;;;;;;;11.80;8.70;;;;;;;28.06;45.96;96547.72;5071249;28;20296;-71
2022/06/22 07:28:29;;;;;;;11.13;8.37;;;;;;;28.05;45.37;96541.56;5089547;28;20667;-71
2022/06/22 07:31:15;;;;;;;11.27;8.27;;;;;;;28.10;45.61;96543.66;5089338;28;20204;-70
2022/06/22 07:33:49;;;;;;;9.17;8.23;;;;;;;28.27;45.82;96522.91;5087830;28;20200;-72
2022/06/22 07:36:26;;;;;;;11.77;8.23;;;;;;;28.61;44.38;96539.81;5089512;28;20291;-71
2022/06/22 07:39:01;;;;;;;10.73;7.60;;;;;;;28.70;42.51;96536.00;5088180;28;20195;-72
2022/06/22 07:41:32;;;;;;;12.70;8.13;;;;;;;28.82;43.69;96538.94;5089375;28;20192;-72
2022/06/22 07:44:21;;;;;;;12.57;8.63;;;;;;;28.54;43.68;96540.75;5089093;28;20228;-73
2022/06/22 07:47:05;;;;;;;12.43;8.03;;;;;;;28.55;43.95;96545.88;5088265;28;20196;-73
2022/06/22 07:50:00;;;;;;;10.87;7.60;;;;;;;28.50;43.34;96552.81;5089095;28;20735;-72
2022/06/22 07:52:36;;;;;;;10.07;8.33;;;;;;;28.26;43.84;96546.03;5089377;28;20196;-71
2022/06/22 07:55:25;;;;;;;10.63;8.77;;;;;;;28.12;44.46;96552.28;5087671;28;20197;-71
2022/06/22 07:58:34;;;;;;;10.30;8.87;;;;;;;28.27;44.24;96539.72;5089497;28;20525;-71
2022/06/22 08:01:08;;;;;;;11.20;8.73;;;;;;;28.49;44.20;96540.50;5088666;28;20200;-71
2022/06/22 08:03:46;;;;;;;9.27;7.93;;;;;;;28.31;43.87;96554.31;5086868;28;20192;-71
2022/06/22 08:06:25;;;;;;;15.03;8.77;;;;;;;28.04;44.67;96571.88;5089180;28;20365;-71
2022/06/22 08:08:57;;;;;;;12.70;8.07;;;;;;;27.91;43.95;96557.56;5087541;28;20714;-71
2022/06/22 08:11:39;;;;;;;9.37;7.57;;;;;;;28.07;44.23;96578.63;5089193;28;20204;-71
2022/06/22 08:14:12;;;;;;;10.47;7.60;;;;;;;28.11;44.07;96586.06;5088654;28;20654;-71
2022/06/22 08:16:48;;;;;;;9.73;6.67;;;;;;;28.16;44.90;96562.34;5087760;28;20600;-71
2022/06/22 08:19:15;;;;;;;9.30;7.10;;;;;;;28.10;45.31;96586.25;5088765;28;20184;-71
2022/06/22 08:21:46;;;;;;;12.53;8.60;;;;;;;28.09;45.38;96589.91;5087057;28;20243;-73
2022/06/22 08:24:18;;;;;;;11.97;10.67;;;;;;;28.03;45.88;96591.50;5088410;28;20642;-71
2022/06/22 08:26:47;;;;;;;11.80;8.60;;;;;;;27.90;46.36;96577.22;5088109;28;20612;-70
2022/06/22 08:29:18;;;;;;;12.47;9.90;;;;;;;27.83;46.79;96597.59;5087594;28;20253;-71
2022/06/22 08:31:59;;;;;;;15.57;10.73;;;;;;;27.51;47.86;96582.91;5088407;28;20214;-72
2022/06/22 08:34:54;;;;;;;17.13;10.63;;;;;;;27.78;47.25;96594.69;5071900;28;20184;-71
2022/06/22 08:37:31;;;;;;;17.00;10.93;;;;;;;27.77;47.71;96598.34;5088585;28;20210;-71
2022/06/22 08:40:16;;;;;;;14.53;11.63;;;;;;;27.67;48.11;96574.72;5088149;28;20196;-71
2022/06/22 08:43:00;;;;;;;15.10;10.80;;;;;;;27.81;47.26;96571.19;5086972;28;20207;-71
2022/06/22 08:45:52;;;;;;;15.23;11.50;;;;;;;27.84;46.80;96570.78;5088578;28;20254;-70
2022/06/22 08:48:35;;;;;;;16.73;12.37;;;;;;;28.15;46.65;96562.56;5087447;28;20204;-73
2022/06/22 08:51:27;;;;;;;15.90;11.90;;;;;;;28.21;46.04;96550.31;5086814;28;20227;-71
2022/06/22 08:54:22;;;;;;;15.27;11.87;;;;;;;28.37;45.87;96550.88;5069360;28;20208;-72
2022/06/22 08:57:03;;;;;;;15.77;11.40;;;;;;;28.46;45.77;96547.03;5087085;28;20273;-72
2022/06/22 08:59:41;;;;;;;15.10;11.57;;;;;;;28.34;45.96;96543.25;5086451;28;20199;-72
2022/06/22 09:02:32;;;;;;;16.17;12.33;;;;;;;28.14;46.74;96550.25;5087829;28;20310;-72
2022/06/22 09:05:21;;;;;;;16.20;12.73;;;;;;;28.27;46.22;96534.41;5086561;28;20682;-71
2022/06/22 09:08:05;;;;;;;17.80;13.60;;;;;;;28.24;46.51;96540.09;5087268;28;20660;-72
2022/06/22 09:10:32;;;;;;;20.97;14.80;;;;;;;28.50;45.89;96539.50;5087766;28;20288;-74
2022/06/22 09:13:10;;;;;;;17.73;14.17;;;;;;;28.60;45.55;96538.19;5086051;28;20234;-72
2022/06/22 09:15:55;;;;;;;18.67;13.60;;;;;;;28.99;45.24;96532.28;5087500;28;20188;-72
2022/06/22 09:18:34;;;;;;;15.60;13.70;;;;;;;29.22;44.14;96532.00;5086668;28;20228;-72
2022/06/22 09:21:08;;;;;;;21.77;13.77;;;;;;;29.33;43.72;96523.44;5086514;28;20246;-72
2022/06/22 09:24:08;;;;;;;15.93;13.30;;;;;;;29.17;43.98;96513.09;5087552;28;20683;-72
2022/06/22 09:26:42;;;;;;;17.53;13.63;;;;;;;29.06;43.87;96526.97;5085963;28;20224;-71
2022/06/22 09:29:46;;;;;;;19.03;14.37;;;;;;;29.13;44.16;96526.00;5087059;28;20621;-72
2022/06/22 09:32:22;;;;;;;16.03;14.17;;;;;;;29.02;44.47;96526.53;5087562;28;20204;-72
2022/06/22 09:35:18;;;;;;;16.53;13.53;;;;;;;29.00;44.39;96522.44;5085854;28;20196;-72
2022/06/22 09:38:02;;;;;;;16.97;12.50;;;;;;;29.25;44.56;96535.09;5069307;28;20250;-71
2022/06/22 09:40:41;;;;;;;16.63;11.03;;;;;;;29.24;44.23;96528.13;5087401;28;20208;-71
2022/06/22 09:43:34;;;;;;;12.43;10.27;;;;;;;29.28;43.94;96523.22;5085499;28;20196;-71
2022/06/22 09:46:13;;;;;;;15.60;10.57;;;;;;;29.68;43.76;96533.00;5087493;28;20266;-72
2022/06/22 09:49:01;;;;;;;16.37;9.67;;;;;;;29.22;43.78;96537.34;5086331;28;20930;-71
2022/06/22 09:51:50;;;;;;;15.07;9.27;;;;;;;29.37;43.75;96541.50;5086047;28;20200;-71
2022/06/22 09:57:46;;;;;;;11.63;7.93;;;;;;;29.23;44.08;96529.13;5086490;28;20202;-72
2022/06/22 10:00:22;;;;;;;11.23;7.93;;;;;;;28.82;44.35;96544.25;5085604;28;20250;-72
2022/06/22 10:03:21;;;;;;;12.60;8.67;;;;;;;28.58;44.71;96502.91;5069047;28;20196;-71
2022/06/22 10:05:56;;;;;;;11.83;8.43;;;;;;;28.63;44.92;96531.59;5085811;28;20228;-71
2022/06/22 10:08:49;;;;;;;12.67;8.63;;;;;;;29.10;44.42;96506.91;5086284;28;20192;-72
2022/06/22 10:11:50;;;;;;;12.63;8.83;;;;;;;29.21;44.27;96514.34;5076577;28;20480;-71
2022/06/22 10:14:58;;;;;;;11.13;8.03;;;;;;;29.13;43.54;96511.81;5085606;28;20206;-72
2022/06/22 10:17:35;;;;;;;11.47;8.03;;;;;;;28.55;45.12;96519.25;5085074;28;20197;-71
2022/06/22 10:20:48;;;;;;;12.90;8.13;;;;;;;28.43;45.60;96531.44;5086934;28;20287;-71
2022/06/22 10:23:29;;;;;;;13.47;8.23;;;;;;;28.55;44.83;96523.72;5067646;28;20251;-71
2022/06/22 10:26:24;;;;;;;10.80;8.30;;;;;;;28.54;45.59;96528.22;5085672;28;20235;-71
2022/06/22 10:29:24;;;;;;;13.23;9.00;;;;;;;28.74;45.17;96526.59;5090953;28;20249;-71
2022/06/22 10:32:07;;;;;;;11.70;8.70;;;;;;;28.80;45.15;96523.13;5090382;28;20257;-72
2022/06/22 10:34:45;;;;;;;10.87;9.37;;;;;;;28.78;45.43;96530.50;5089512;28;20287;-72
2022/06/22 10:37:34;;;;;;;11.73;9.30;;;;;;;28.68;45.96;96539.88;5090863;28;20295;-72
2022/06/22 10:46:29;;;;;;;13.20;9.13;;;;;;;28.32;46.37;96550.59;5090715;28;20231;-72
2022/06/22 10:49:18;;;;;;;12.53;10.27;;;;;;;28.50;46.98;96550.94;5089600;28;20227;-72
2022/06/22 10:52:10;;;;;;;11.40;8.93;;;;;;;28.33;47.29;96551.44;5089292;28;20196;-72
2022/06/22 10:54:55;;;;;;;14.87;9.53;;;;;;;28.37;47.65;96544.72;5090344;28;20193;-72
2022/06/22 10:57:53;;;;;;;14.97;10.10;;;;;;;28.73;47.22;96553.41;5089083;28;20235;-72
2022/06/22 11:00:49;;;;;;;10.47;9.17;;;;;;;28.75;47.20;96530.06;5089896;28;20192;-72
2022/06/22 11:04:11;;;;;;;11.40;9.70;;;;;;;28.82;46.22;96538.94;5090329;28;20283;-72
2022/06/22 11:06:50;;;;;;;12.20;10.20;;;;;;;28.70;47.29;96548.50;5007609;28;20234;-72
2022/06/22 11:09:44;;;;;;;17.30;10.37;;;;;;;28.66;46.89;96548.06;5079186;28;20209;-72
2022/06/22 11:12:35;;;;;;;13.67;9.57;;;;;;;28.31;47.24;96537.50;5090194;28;20283;-72
2022/06/22 11:15:21;;;;;;;12.27;10.60;;;;;;;28.47;47.28;96545.19;5089608;28;20638;-72
2022/06/22 11:18:08;;;;;;;17.87;11.07;;;;;;;28.55;47.16;96537.88;5088879;28;20951;-72
2022/06/22 11:20:50;;;;;;;14.90;11.07;;;;;;;28.46;46.40;96535.56;5089835;28;20197;-72
2022/06/22 11:23:39;;;;;;;12.07;9.60;;;;;;;28.37;46.18;96529.56;5070163;28;20380;-72
2022/06/22 11:32:46;;;;;;;14.03;10.97;;;;;;;28.35;47.57;96534.25;5089384;28;20709;-71
2022/06/22 11:35:41;;;;;;;14.87;11.93;;;;;;;28.22;47.17;96514.66;5071540;28;20196;-71
2022/06/22 11:38:31;;;;;;;14.50;11.03;;;;;;;28.33;47.14;96508.81;5088614;28;20626;-72
2022/06/22 11:41:30;;;;;;;15.10;10.83;;;;;;;28.56;46.73;96496.94;5089245;28;20192;-72
2022/06/22 11:44:13;;;;;;;13.23;11.17;;;;;;;28.90;46.23;96506.78;5088546;28;20315;-72
2022/06/22 11:46:56;;;;;;;14.93;12.27;;;;;;;28.79;46.17;96513.47;5089756;28;20227;-73
2022/06/22 11:49:49;;;;;;;15.83;12.03;;;;;;;28.77;45.99;96502.19;5088828;28;20727;-72
2022/06/22 11:52:28;;;;;;;14.50;11.37;;;;;;;28.83;46.64;96496.06;5084836;28;20192;-72
2022/06/22 11:55:20;;;;;;;16.20;11.77;;;;;;;29.15;45.53;96496.47;5071500;28;20306;-72
2022/06/22 11:58:11;;;;;;;15.50;11.47;;;;;;;29.35;44.64;96489.38;5088251;28;20749;-73
2022/06/22 12:01:15;;;;;;;15.77;10.63;;;;;;;29.49;43.87;96493.75;5069904;28;20198;-73
2022/06/22 12:04:05;;;;;;;15.60;11.30;;;;;;;29.55;43.71;96495.63;5089194;28;20730;-71
2022/06/22 12:06:41;;;;;;;11.90;9.90;;;;;;;29.44;43.59;96506.84;5088066;28;20281;-73
2022/06/22 12:09:31;;;;;;;12.57;10.80;;;;;;;29.54;43.65;96500.13;5088898;28;20246;-73
2022/06/22 12:12:32;;;;;;;15.73;10.50;;;;;;;29.53;43.46;96493.13;5089022;28;20197;-72
2022/06/22 12:15:09;;;;;;;16.20;10.37;;;;;;;29.92;43.31;96481.75;5088057;28;20196;-73
2022/06/22 12:17:42;;;;;;;13.10;9.50;;;;;;;29.95;42.02;96481.34;5088601;28;20203;-73
2022/06/22 12:20:21;;;;;;;12.23;9.73;;;;;;;29.87;42.33;96483.38;5088485;28;20196;-73
2022/06/22 12:23:22;;;;;;;14.40;11.07;;;;;;;29.56;42.02;96482.06;5087341;28;20704;-73
2022/06/22 12:26:04;;;;;;;15.33;9.70;;;;;;;29.53;43.47;96495.00;5058315;28;20224;-73
2022/06/22 12:28:37;;;;;;;16.07;10.80;;;;;;;29.38;42.97;96494.31;5086253;28;20643;-72
2022/06/22 12:31:24;;;;;;;17.20;9.30;;;;;;;29.16;43.39;96500.81;5087539;28;20258;-72
2022/06/22 12:34:14;;;;;;;12.70;9.50;;;;;;;29.13;43.61;96503.81;5088653;28;20224;-72
2022/06/22 12:36:48;;;;;;;12.73;9.60;;;;;;;29.07;43.54;96507.28;5087684;28;20212;-73
2022/06/22 12:39:41;;;;;;;11.77;9.67;;;;;;;28.97;43.54;96508.44;5069865;28;20745;-72
2022/06/22 12:42:40;;;;;;;13.87;10.07;;;;;;;28.77;44.67;96507.53;5088679;28;20988;-72
2022/06/22 12:45:18;;;;;;;11.50;9.27;;;;;;;28.84;45.04;96511.06;5087391;28;20193;-72
2022/06/22 12:47:50;;;;;;;14.93;9.17;;;;;;;28.74;43.78;96512.44;5087968;28;20651;-72
2022/06/22 12:50:59;;;;;;;11.73;9.23;;;;;;;28.98;44.17;96526.13;5087747;28;20696;-73